sensor_id;sensor_type;location;lat;lon;timestamp;temperature;humidity
698;DHT22;331;48.414;9.938;2023-01-28T00:02:05;0.50;99.90
698;DHT22;331;48.414;9.938;2023-01-28T00:04:32;0.50;99.90
698;DHT22;331;48.414;9.938;2023-01-28T00:07:01;0.50;99.90
698;DHT22;331;48.414;9.938;2023-01-28T00:09:28;0.50;99.90
698;DHT22;331;48.414;9.938;2023-01-28T00:11:55;0.50;99.90
698;DHT22;331;48.414;9.938;2023-01-28T00:14:24;0.50;99.90
698;DHT22;331;48.414;9.938;2023-01-28T00:16:50;0.50;99.90
698;DHT22;331;48.414;9.938;2023-01-28T00:19:17;0.50;99.90
698;DHT22;331;48.414;9.938;2023-01-28T00:21:44;0.50;99.90
698;DHT22;331;48.414;9.938;2023-01-28T00:24:12;0.50;99.90
698;DHT22;331;48.414;9.938;2023-01-28T00:26:39;0.50;99.90
698;DHT22;331;48.414;9.938;2023-01-28T00:29:06;0.50;99.90
698;DHT22;331;48.414;9.938;2023-01-28T00:31:35;0.50;99.90
698;DHT22;331;48.414;9.938;2023-01-28T00:34:02;0.50;99.90
698;DHT22;331;48.414;9.938;2023-01-28T00:36:29;0.50;99.90
698;DHT22;331;48.414;9.938;2023-01-28T00:38:56;0.50;99.90
698;DHT22;331;48.414;9.938;2023-01-28T00:41:25;0.50;99.90
698;DHT22;331;48.414;9.938;2023-01-28T00:43:54;0.50;99.90
698;DHT22;331;48.414;9.938;2023-01-28T00:46:21;0.50;99.90
698;DHT22;331;48.414;9.938;2023-01-28T00:48:49;0.50;99.90
698;DHT22;331;48.414;9.938;2023-01-28T00:51:17;0.50;99.90
698;DHT22;331;48.414;9.938;2023-01-28T00:53:44;0.50;99.90
698;DHT22;331;48.414;9.938;2023-01-28T00:56:12;0.50;99.90
698;DHT22;331;48.414;9.938;2023-01-28T00:58:43;0.50;99.90
698;DHT22;331;48.414;9.938;2023-01-28T01:01:11;0.50;99.90
698;DHT22;331;48.414;9.938;2023-01-28T01:03:38;0.50;99.90
698;DHT22;331;48.414;9.938;2023-01-28T01:06:05;0.50;99.90
698;DHT22;331;48.414;9.938;2023-01-28T01:08:38;0.50;99.90
698;DHT22;331;48.414;9.938;2023-01-28T01:11:07;0.50;99.90
698;DHT22;331;48.414;9.938;2023-01-28T01:13:34;0.50;99.90
698;DHT22;331;48.414;9.938;2023-01-28T01:16:04;0.50;99.90
698;DHT22;331;48.414;9.938;2023-01-28T01:18:31;0.50;99.90
698;DHT22;331;48.414;9.938;2023-01-28T01:20:59;0.50;99.90
698;DHT22;331;48.414;9.938;2023-01-28T01:23:25;0.50;99.90
698;DHT22;331;48.414;9.938;2023-01-28T01:25:55;0.50;99.90
698;DHT22;331;48.414;9.938;2023-01-28T01:28:23;0.50;99.90
698;DHT22;331;48.414;9.938;2023-01-28T01:30:57;0.50;99.90
698;DHT22;331;48.414;9.938;2023-01-28T01:33:26;0.50;99.90
698;DHT22;331;48.414;9.938;2023-01-28T01:35:53;0.50;99.90
698;DHT22;331;48.414;9.938;2023-01-28T01:38:20;0.50;99.90
698;DHT22;331;48.414;9.938;2023-01-28T01:40:47;0.50;99.90
698;DHT22;331;48.414;9.938;2023-01-28T01:43:16;0.50;99.90
698;DHT22;331;48.414;9.938;2023-01-28T01:45:44;0.50;99.90
698;DHT22;331;48.414;9.938;2023-01-28T01:48:13;0.50;99.90
698;DHT22;331;48.414;9.938;2023-01-28T01:50:43;0.50;99.90
698;DHT22;331;48.414;9.938;2023-01-28T01:53:16;0.50;99.90
698;DHT22;331;48.414;9.938;2023-01-28T01:55:45;0.50;99.90
698;DHT22;331;48.414;9.938;2023-01-28T01:58:13;0.50;99.90
698;DHT22;331;48.414;9.938;2023-01-28T02:00:42;0.50;99.90
698;DHT22;331;48.414;9.938;2023-01-28T02:03:09;0.50;99.90
698;DHT22;331;48.414;9.938;2023-01-28T02:05:36;0.50;99.90
698;DHT22;331;48.414;9.938;2023-01-28T02:08:08;0.50;99.90
698;DHT22;331;48.414;9.938;2023-01-28T02:10:47;0.50;99.90
698;DHT22;331;48.414;9.938;2023-01-28T02:13:16;0.50;99.90
698;DHT22;331;48.414;9.938;2023-01-28T02:15:43;0.50;99.90
698;DHT22;331;48.414;9.938;2023-01-28T02:18:11;0.50;99.90
698;DHT22;331;48.414;9.938;2023-01-28T02:20:53;0.40;99.90
698;DHT22;331;48.414;9.938;2023-01-28T02:23:32;0.40;99.90
698;DHT22;331;48.414;9.938;2023-01-28T02:26:09;0.50;99.90
698;DHT22;331;48.414;9.938;2023-01-28T02:28:44;0.50;99.90
698;DHT22;331;48.414;9.938;2023-01-28T02:31:15;0.40;99.90
698;DHT22;331;48.414;9.938;2023-01-28T02:33:45;0.40;99.90
698;DHT22;331;48.414;9.938;2023-01-28T02:36:16;0.40;99.90
698;DHT22;331;48.414;9.938;2023-01-28T02:38:47;0.40;99.90
698;DHT22;331;48.414;9.938;2023-01-28T02:41:22;0.40;99.90
698;DHT22;331;48.414;9.938;2023-01-28T02:43:51;0.40;99.90
698;DHT22;331;48.414;9.938;2023-01-28T02:46:20;0.40;99.90
698;DHT22;331;48.414;9.938;2023-01-28T02:49:05;0.40;99.90
698;DHT22;331;48.414;9.938;2023-01-28T02:51:38;0.50;99.90
698;DHT22;331;48.414;9.938;2023-01-28T02:54:09;0.50;99.90
698;DHT22;331;48.414;9.938;2023-01-28T02:56:38;0.50;99.90
698;DHT22;331;48.414;9.938;2023-01-28T02:59:10;0.40;99.90
698;DHT22;331;48.414;9.938;2023-01-28T03:02:08;0.40;99.90
698;DHT22;331;48.414;9.938;2023-01-28T03:04:37;0.40;99.90
698;DHT22;331;48.414;9.938;2023-01-28T03:07:09;0.40;99.90
698;DHT22;331;48.414;9.938;2023-01-28T03:09:38;0.40;99.90
698;DHT22;331;48.414;9.938;2023-01-28T03:12:06;0.40;99.90
698;DHT22;331;48.414;9.938;2023-01-28T03:14:54;0.40;99.90
698;DHT22;331;48.414;9.938;2023-01-28T03:17:40;0.40;99.90
698;DHT22;331;48.414;9.938;2023-01-28T03:20:27;0.40;99.90
698;DHT22;331;48.414;9.938;2023-01-28T03:23:16;0.40;99.90
698;DHT22;331;48.414;9.938;2023-01-28T03:26:02;0.40;99.90
698;DHT22;331;48.414;9.938;2023-01-28T03:28:47;0.40;99.90
698;DHT22;331;48.414;9.938;2023-01-28T03:31:37;0.40;99.90
698;DHT22;331;48.414;9.938;2023-01-28T03:34:21;0.40;99.90
698;DHT22;331;48.414;9.938;2023-01-28T03:37:06;0.40;99.90
698;DHT22;331;48.414;9.938;2023-01-28T03:39:54;0.40;99.90
698;DHT22;331;48.414;9.938;2023-01-28T03:42:22;0.40;99.90
698;DHT22;331;48.414;9.938;2023-01-28T03:45:12;0.40;99.90
698;DHT22;331;48.414;9.938;2023-01-28T03:47:40;0.40;99.90
698;DHT22;331;48.414;9.938;2023-01-28T03:50:10;0.40;99.90
698;DHT22;331;48.414;9.938;2023-01-28T03:52:50;0.40;99.90
698;DHT22;331;48.414;9.938;2023-01-28T03:55:29;0.40;99.90
698;DHT22;331;48.414;9.938;2023-01-28T03:57:57;0.40;99.90
698;DHT22;331;48.414;9.938;2023-01-28T04:00:25;0.40;99.90
698;DHT22;331;48.414;9.938;2023-01-28T04:02:54;0.40;99.90
698;DHT22;331;48.414;9.938;2023-01-28T04:05:22;0.40;99.90
698;DHT22;331;48.414;9.938;2023-01-28T04:07:53;0.40;99.90
698;DHT22;331;48.414;9.938;2023-01-28T04:10:38;0.40;99.90
698;DHT22;331;48.414;9.938;2023-01-28T04:13:23;0.40;99.90
698;DHT22;331;48.414;9.938;2023-01-28T04:15:50;0.40;99.90
698;DHT22;331;48.414;9.938;2023-01-28T04:18:19;0.40;99.90
698;DHT22;331;48.414;9.938;2023-01-28T04:20:52;0.40;99.90
698;DHT22;331;48.414;9.938;2023-01-28T04:23:19;0.40;99.90
698;DHT22;331;48.414;9.938;2023-01-28T04:25:48;0.40;99.90
698;DHT22;331;48.414;9.938;2023-01-28T04:28:16;0.40;99.90
698;DHT22;331;48.414;9.938;2023-01-28T04:30:43;0.40;99.90
698;DHT22;331;48.414;9.938;2023-01-28T04:33:23;0.40;99.90
698;DHT22;331;48.414;9.938;2023-01-28T04:36:18;0.40;99.90
698;DHT22;331;48.414;9.938;2023-01-28T04:39:00;0.40;99.90
698;DHT22;331;48.414;9.938;2023-01-28T04:41:36;0.40;99.90
698;DHT22;331;48.414;9.938;2023-01-28T04:44:10;0.40;99.90
698;DHT22;331;48.414;9.938;2023-01-28T04:47:00;0.40;99.90
698;DHT22;331;48.414;9.938;2023-01-28T04:49:49;0.40;99.90
698;DHT22;331;48.414;9.938;2023-01-28T04:52:25;0.40;99.90
698;DHT22;331;48.414;9.938;2023-01-28T04:55:12;0.40;99.90
698;DHT22;331;48.414;9.938;2023-01-28T04:57:51;0.40;99.90
698;DHT22;331;48.414;9.938;2023-01-28T05:00:19;0.40;99.90
698;DHT22;331;48.414;9.938;2023-01-28T05:02:47;0.40;99.90
698;DHT22;331;48.414;9.938;2023-01-28T05:05:16;0.40;99.90
698;DHT22;331;48.414;9.938;2023-01-28T05:07:56;0.40;99.90
698;DHT22;331;48.414;9.938;2023-01-28T05:10:28;0.40;99.90
698;DHT22;331;48.414;9.938;2023-01-28T05:13:05;0.40;99.90
698;DHT22;331;48.414;9.938;2023-01-28T05:15:32;0.40;99.90
698;DHT22;331;48.414;9.938;2023-01-28T05:18:12;0.40;99.90
698;DHT22;331;48.414;9.938;2023-01-28T05:20:47;0.40;99.90
698;DHT22;331;48.414;9.938;2023-01-28T05:23:16;0.40;99.90
698;DHT22;331;48.414;9.938;2023-01-28T05:25:52;0.40;99.90
698;DHT22;331;48.414;9.938;2023-01-28T05:28:21;0.40;99.90
698;DHT22;331;48.414;9.938;2023-01-28T05:30:48;0.40;99.90
698;DHT22;331;48.414;9.938;2023-01-28T05:33:17;0.40;99.90
698;DHT22;331;48.414;9.938;2023-01-28T05:36:00;0.40;99.90
698;DHT22;331;48.414;9.938;2023-01-28T05:38:34;0.40;99.90
698;DHT22;331;48.414;9.938;2023-01-28T05:41:01;0.40;99.90
698;DHT22;331;48.414;9.938;2023-01-28T05:43:32;0.40;99.90
698;DHT22;331;48.414;9.938;2023-01-28T05:46:22;0.40;99.90
698;DHT22;331;48.414;9.938;2023-01-28T05:49:07;0.40;99.90
698;DHT22;331;48.414;9.938;2023-01-28T05:51:57;0.40;99.90
698;DHT22;331;48.414;9.938;2023-01-28T05:54:26;0.40;99.90
698;DHT22;331;48.414;9.938;2023-01-28T05:56:53;0.40;99.90
698;DHT22;331;48.414;9.938;2023-01-28T05:59:23;0.40;99.90
698;DHT22;331;48.414;9.938;2023-01-28T06:02:00;0.40;99.90
698;DHT22;331;48.414;9.938;2023-01-28T06:04:37;0.40;99.90
698;DHT22;331;48.414;9.938;2023-01-28T06:07:06;0.40;99.90
698;DHT22;331;48.414;9.938;2023-01-28T06:09:39;0.40;99.90
698;DHT22;331;48.414;9.938;2023-01-28T06:12:06;0.40;99.90
698;DHT22;331;48.414;9.938;2023-01-28T06:15:00;0.40;99.90
698;DHT22;331;48.414;9.938;2023-01-28T06:17:44;0.40;99.90
698;DHT22;331;48.414;9.938;2023-01-28T06:20:26;0.40;99.90
698;DHT22;331;48.414;9.938;2023-01-28T06:22:58;0.40;99.90
698;DHT22;331;48.414;9.938;2023-01-28T06:25:25;0.40;99.90
698;DHT22;331;48.414;9.938;2023-01-28T06:27:58;0.40;99.90
698;DHT22;331;48.414;9.938;2023-01-28T06:30:25;0.40;99.90
698;DHT22;331;48.414;9.938;2023-01-28T06:32:54;0.40;99.90
698;DHT22;331;48.414;9.938;2023-01-28T06:35:24;0.40;99.90
698;DHT22;331;48.414;9.938;2023-01-28T06:37:51;0.40;99.90
698;DHT22;331;48.414;9.938;2023-01-28T06:40:24;0.30;99.90
698;DHT22;331;48.414;9.938;2023-01-28T06:42:53;0.40;99.90
698;DHT22;331;48.414;9.938;2023-01-28T06:45:25;0.40;99.90
698;DHT22;331;48.414;9.938;2023-01-28T06:47:52;0.40;99.90
698;DHT22;331;48.414;9.938;2023-01-28T06:50:27;0.40;99.90
698;DHT22;331;48.414;9.938;2023-01-28T06:52:59;0.40;99.90
698;DHT22;331;48.414;9.938;2023-01-28T06:55:35;0.40;99.90
698;DHT22;331;48.414;9.938;2023-01-28T06:58:02;0.40;99.90
698;DHT22;331;48.414;9.938;2023-01-28T07:00:30;0.40;99.90
698;DHT22;331;48.414;9.938;2023-01-28T07:02:57;0.40;99.90
698;DHT22;331;48.414;9.938;2023-01-28T07:05:27;0.40;99.90
698;DHT22;331;48.414;9.938;2023-01-28T07:07:55;0.40;99.90
698;DHT22;331;48.414;9.938;2023-01-28T07:10:30;0.40;99.90
698;DHT22;331;48.414;9.938;2023-01-28T07:13:02;0.40;99.90
698;DHT22;331;48.414;9.938;2023-01-28T07:15:30;0.40;99.90
698;DHT22;331;48.414;9.938;2023-01-28T07:17:57;0.40;99.90
698;DHT22;331;48.414;9.938;2023-01-28T07:20:25;0.40;99.90
698;DHT22;331;48.414;9.938;2023-01-28T07:22:52;0.40;99.90
698;DHT22;331;48.414;9.938;2023-01-28T07:25:19;0.40;99.90
698;DHT22;331;48.414;9.938;2023-01-28T07:27:47;0.40;99.90
698;DHT22;331;48.414;9.938;2023-01-28T07:30:16;0.40;99.90
698;DHT22;331;48.414;9.938;2023-01-28T07:32:43;0.40;99.90
698;DHT22;331;48.414;9.938;2023-01-28T07:35:10;0.40;99.90
698;DHT22;331;48.414;9.938;2023-01-28T07:37:38;0.40;99.90
698;DHT22;331;48.414;9.938;2023-01-28T07:40:06;0.40;99.90
698;DHT22;331;48.414;9.938;2023-01-28T07:42:33;0.40;99.90
698;DHT22;331;48.414;9.938;2023-01-28T07:45:10;0.40;99.90
698;DHT22;331;48.414;9.938;2023-01-28T07:47:42;0.40;99.90
698;DHT22;331;48.414;9.938;2023-01-28T07:50:11;0.40;99.90
698;DHT22;331;48.414;9.938;2023-01-28T07:52:39;0.40;99.90
698;DHT22;331;48.414;9.938;2023-01-28T07:55:09;0.40;99.90
698;DHT22;331;48.414;9.938;2023-01-28T07:57:47;0.40;99.90
698;DHT22;331;48.414;9.938;2023-01-28T08:00:14;0.40;99.90
698;DHT22;331;48.414;9.938;2023-01-28T08:02:47;0.40;99.90
698;DHT22;331;48.414;9.938;2023-01-28T08:05:15;0.40;99.90
698;DHT22;331;48.414;9.938;2023-01-28T08:07:54;0.40;99.90
698;DHT22;331;48.414;9.938;2023-01-28T08:10:26;0.40;99.90
698;DHT22;331;48.414;9.938;2023-01-28T08:13:05;0.40;99.90
698;DHT22;331;48.414;9.938;2023-01-28T08:15:32;0.40;99.90
698;DHT22;331;48.414;9.938;2023-01-28T08:18:01;0.40;99.90
698;DHT22;331;48.414;9.938;2023-01-28T08:20:28;0.40;99.90
698;DHT22;331;48.414;9.938;2023-01-28T08:23:08;0.40;99.90
698;DHT22;331;48.414;9.938;2023-01-28T08:25:37;0.40;99.90
698;DHT22;331;48.414;9.938;2023-01-28T08:28:04;0.40;99.90
698;DHT22;331;48.414;9.938;2023-01-28T08:30:33;0.40;99.90
698;DHT22;331;48.414;9.938;2023-01-28T08:33:01;0.40;99.90
698;DHT22;331;48.414;9.938;2023-01-28T08:35:28;0.40;99.90
698;DHT22;331;48.414;9.938;2023-01-28T08:37:57;0.40;99.90
698;DHT22;331;48.414;9.938;2023-01-28T08:40:25;0.40;99.90
698;DHT22;331;48.414;9.938;2023-01-28T08:42:52;0.40;99.90
698;DHT22;331;48.414;9.938;2023-01-28T08:45:19;0.40;99.90
698;DHT22;331;48.414;9.938;2023-01-28T08:47:51;0.40;99.90
698;DHT22;331;48.414;9.938;2023-01-28T08:50:20;0.40;99.90
698;DHT22;331;48.414;9.938;2023-01-28T08:52:47;0.40;99.90
698;DHT22;331;48.414;9.938;2023-01-28T08:55:15;0.40;99.90
698;DHT22;331;48.414;9.938;2023-01-28T08:57:43;0.40;99.90
698;DHT22;331;48.414;9.938;2023-01-28T09:00:13;0.40;99.90
698;DHT22;331;48.414;9.938;2023-01-28T09:02:40;0.40;99.90
698;DHT22;331;48.414;9.938;2023-01-28T09:05:10;0.40;99.90
698;DHT22;331;48.414;9.938;2023-01-28T09:07:38;0.40;99.90
698;DHT22;331;48.414;9.938;2023-01-28T09:10:05;0.40;99.90
698;DHT22;331;48.414;9.938;2023-01-28T09:12:32;0.40;99.90
698;DHT22;331;48.414;9.938;2023-01-28T09:14:59;0.40;99.90
698;DHT22;331;48.414;9.938;2023-01-28T09:17:26;0.40;99.90
698;DHT22;331;48.414;9.938;2023-01-28T09:19:53;0.40;99.90
698;DHT22;331;48.414;9.938;2023-01-28T09:22:23;0.40;99.90
698;DHT22;331;48.414;9.938;2023-01-28T09:24:51;0.40;99.90
698;DHT22;331;48.414;9.938;2023-01-28T09:27:18;0.40;99.90
698;DHT22;331;48.414;9.938;2023-01-28T09:29:45;0.40;99.90
698;DHT22;331;48.414;9.938;2023-01-28T09:32:12;0.40;99.90
698;DHT22;331;48.414;9.938;2023-01-28T09:34:38;0.50;99.90
698;DHT22;331;48.414;9.938;2023-01-28T09:37:05;0.50;99.90
698;DHT22;331;48.414;9.938;2023-01-28T09:39:32;0.60;99.90
698;DHT22;331;48.414;9.938;2023-01-28T09:42:08;0.60;99.90
698;DHT22;331;48.414;9.938;2023-01-28T09:44:43;0.60;99.90
698;DHT22;331;48.414;9.938;2023-01-28T09:47:15;0.70;99.90
698;DHT22;331;48.414;9.938;2023-01-28T09:49:46;0.70;99.90
698;DHT22;331;48.414;9.938;2023-01-28T09:52:22;0.70;99.90
698;DHT22;331;48.414;9.938;2023-01-28T09:54:53;0.70;99.90
698;DHT22;331;48.414;9.938;2023-01-28T09:57:23;0.70;99.90
698;DHT22;331;48.414;9.938;2023-01-28T09:59:51;0.70;99.90
698;DHT22;331;48.414;9.938;2023-01-28T10:02:24;0.70;99.90
698;DHT22;331;48.414;9.938;2023-01-28T10:04:57;0.70;99.90
698;DHT22;331;48.414;9.938;2023-01-28T10:07:28;0.70;99.90
698;DHT22;331;48.414;9.938;2023-01-28T10:10:00;0.70;99.90
698;DHT22;331;48.414;9.938;2023-01-28T10:12:36;0.70;99.90
698;DHT22;331;48.414;9.938;2023-01-28T10:15:09;0.70;99.90
698;DHT22;331;48.414;9.938;2023-01-28T10:17:40;0.70;99.90
698;DHT22;331;48.414;9.938;2023-01-28T10:20:13;0.70;99.90
698;DHT22;331;48.414;9.938;2023-01-28T10:22:43;0.70;99.90
698;DHT22;331;48.414;9.938;2023-01-28T10:25:14;0.70;99.90
698;DHT22;331;48.414;9.938;2023-01-28T10:27:44;0.70;99.90
698;DHT22;331;48.414;9.938;2023-01-28T10:30:15;0.70;99.90
698;DHT22;331;48.414;9.938;2023-01-28T10:32:44;0.70;99.90
698;DHT22;331;48.414;9.938;2023-01-28T10:35:12;0.70;99.90
698;DHT22;331;48.414;9.938;2023-01-28T10:37:40;0.70;99.90
698;DHT22;331;48.414;9.938;2023-01-28T10:40:11;0.70;99.90
698;DHT22;331;48.414;9.938;2023-01-28T10:42:38;0.80;99.90
698;DHT22;331;48.414;9.938;2023-01-28T10:45:07;0.80;99.90
698;DHT22;331;48.414;9.938;2023-01-28T10:47:37;0.80;99.90
698;DHT22;331;48.414;9.938;2023-01-28T10:50:04;0.80;99.90
698;DHT22;331;48.414;9.938;2023-01-28T10:52:31;0.80;99.90
698;DHT22;331;48.414;9.938;2023-01-28T10:54:59;0.80;99.90
698;DHT22;331;48.414;9.938;2023-01-28T10:57:26;0.80;99.90
698;DHT22;331;48.414;9.938;2023-01-28T10:59:53;0.80;99.90
698;DHT22;331;48.414;9.938;2023-01-28T11:02:25;0.80;99.90
698;DHT22;331;48.414;9.938;2023-01-28T11:05:00;0.80;99.90
698;DHT22;331;48.414;9.938;2023-01-28T11:07:30;0.80;99.90
698;DHT22;331;48.414;9.938;2023-01-28T11:09:57;0.80;99.90
698;DHT22;331;48.414;9.938;2023-01-28T11:12:25;0.80;99.90
698;DHT22;331;48.414;9.938;2023-01-28T11:14:53;0.80;99.90
698;DHT22;331;48.414;9.938;2023-01-28T11:17:21;0.80;99.90
698;DHT22;331;48.414;9.938;2023-01-28T11:19:50;0.80;99.90
698;DHT22;331;48.414;9.938;2023-01-28T11:22:20;0.80;99.90
698;DHT22;331;48.414;9.938;2023-01-28T11:24:48;0.80;99.90
698;DHT22;331;48.414;9.938;2023-01-28T11:27:16;0.80;99.90
698;DHT22;331;48.414;9.938;2023-01-28T11:29:43;0.80;99.90
698;DHT22;331;48.414;9.938;2023-01-28T11:32:17;0.80;99.90
698;DHT22;331;48.414;9.938;2023-01-28T11:34:48;0.80;99.90
698;DHT22;331;48.414;9.938;2023-01-28T11:37:18;0.80;99.90
698;DHT22;331;48.414;9.938;2023-01-28T11:39:46;0.80;99.90
698;DHT22;331;48.414;9.938;2023-01-28T11:42:15;0.80;99.90
698;DHT22;331;48.414;9.938;2023-01-28T11:44:45;0.80;99.90
698;DHT22;331;48.414;9.938;2023-01-28T11:47:21;0.90;99.90
698;DHT22;331;48.414;9.938;2023-01-28T11:49:59;0.80;99.90
698;DHT22;331;48.414;9.938;2023-01-28T11:52:35;0.90;99.90
698;DHT22;331;48.414;9.938;2023-01-28T11:55:10;0.90;99.90
698;DHT22;331;48.414;9.938;2023-01-28T11:57:45;0.90;99.90
698;DHT22;331;48.414;9.938;2023-01-28T12:00:29;0.90;99.90
698;DHT22;331;48.414;9.938;2023-01-28T12:03:01;0.90;99.90
698;DHT22;331;48.414;9.938;2023-01-28T12:05:39;0.90;99.90
698;DHT22;331;48.414;9.938;2023-01-28T12:08:11;0.90;99.90
698;DHT22;331;48.414;9.938;2023-01-28T12:10:46;0.90;99.90
698;DHT22;331;48.414;9.938;2023-01-28T12:13:18;0.90;99.90
698;DHT22;331;48.414;9.938;2023-01-28T12:16:05;1.00;99.90
698;DHT22;331;48.414;9.938;2023-01-28T12:21:22;1.00;99.90
698;DHT22;331;48.414;9.938;2023-01-28T12:23:58;1.00;99.90
698;DHT22;331;48.414;9.938;2023-01-28T12:26:29;1.00;99.90
698;DHT22;331;48.414;9.938;2023-01-28T12:29:05;1.00;99.90
698;DHT22;331;48.414;9.938;2023-01-28T12:31:37;1.00;99.90
698;DHT22;331;48.414;9.938;2023-01-28T12:34:17;1.00;99.90
698;DHT22;331;48.414;9.938;2023-01-28T12:36:51;1.00;99.90
698;DHT22;331;48.414;9.938;2023-01-28T12:39:28;1.00;99.90
698;DHT22;331;48.414;9.938;2023-01-28T12:42:01;1.00;99.90
698;DHT22;331;48.414;9.938;2023-01-28T12:44:31;1.00;99.90
698;DHT22;331;48.414;9.938;2023-01-28T12:47:00;1.00;99.90
698;DHT22;331;48.414;9.938;2023-01-28T12:49:28;1.10;99.90
698;DHT22;331;48.414;9.938;2023-01-28T12:52:00;1.00;99.90
698;DHT22;331;48.414;9.938;2023-01-28T12:54:31;1.00;99.90
698;DHT22;331;48.414;9.938;2023-01-28T12:56:59;1.10;99.90
698;DHT22;331;48.414;9.938;2023-01-28T12:59:27;1.10;99.90
698;DHT22;331;48.414;9.938;2023-01-28T13:01:56;1.10;99.90
698;DHT22;331;48.414;9.938;2023-01-28T13:04:30;1.10;99.90
698;DHT22;331;48.414;9.938;2023-01-28T13:06:59;1.10;99.90
698;DHT22;331;48.414;9.938;2023-01-28T13:09:27;1.10;99.90
698;DHT22;331;48.414;9.938;2023-01-28T13:11:57;1.10;99.90
698;DHT22;331;48.414;9.938;2023-01-28T13:14:26;1.10;99.90
698;DHT22;331;48.414;9.938;2023-01-28T13:16:54;1.10;99.90
698;DHT22;331;48.414;9.938;2023-01-28T13:19:23;1.10;99.90
698;DHT22;331;48.414;9.938;2023-01-28T13:21:50;1.10;99.90
698;DHT22;331;48.414;9.938;2023-01-28T13:24:21;1.10;99.90
698;DHT22;331;48.414;9.938;2023-01-28T13:26:49;1.10;99.90
698;DHT22;331;48.414;9.938;2023-01-28T13:29:19;1.10;99.90
698;DHT22;331;48.414;9.938;2023-01-28T13:31:47;1.10;99.90
698;DHT22;331;48.414;9.938;2023-01-28T13:34:25;1.10;99.90
698;DHT22;331;48.414;9.938;2023-01-28T13:36:54;1.10;99.90
698;DHT22;331;48.414;9.938;2023-01-28T13:39:21;1.10;99.90
698;DHT22;331;48.414;9.938;2023-01-28T13:41:49;1.10;99.90
698;DHT22;331;48.414;9.938;2023-01-28T13:44:26;1.20;99.90
698;DHT22;331;48.414;9.938;2023-01-28T13:46:55;1.10;99.90
698;DHT22;331;48.414;9.938;2023-01-28T13:49:25;1.10;99.90
698;DHT22;331;48.414;9.938;2023-01-28T13:51:56;1.10;99.90
698;DHT22;331;48.414;9.938;2023-01-28T13:54:27;1.10;99.90
698;DHT22;331;48.414;9.938;2023-01-28T13:57:04;1.20;99.90
698;DHT22;331;48.414;9.938;2023-01-28T13:59:39;1.10;99.90
698;DHT22;331;48.414;9.938;2023-01-28T14:05:01;1.10;99.90
698;DHT22;331;48.414;9.938;2023-01-28T14:07:39;1.10;99.90
698;DHT22;331;48.414;9.938;2023-01-28T14:10:16;1.10;99.90
698;DHT22;331;48.414;9.938;2023-01-28T14:12:52;1.10;99.90
698;DHT22;331;48.414;9.938;2023-01-28T14:18:14;1.10;99.90
698;DHT22;331;48.414;9.938;2023-01-28T14:20:44;1.10;99.90
698;DHT22;331;48.414;9.938;2023-01-28T14:23:15;1.10;99.90
698;DHT22;331;48.414;9.938;2023-01-28T14:25:48;1.10;99.90
698;DHT22;331;48.414;9.938;2023-01-28T14:28:18;1.10;99.90
698;DHT22;331;48.414;9.938;2023-01-28T14:30:47;1.20;99.90
698;DHT22;331;48.414;9.938;2023-01-28T14:33:17;1.10;99.90
698;DHT22;331;48.414;9.938;2023-01-28T14:35:45;1.10;99.90
698;DHT22;331;48.414;9.938;2023-01-28T14:38:13;1.20;99.90
698;DHT22;331;48.414;9.938;2023-01-28T14:40:40;1.20;99.90
698;DHT22;331;48.414;9.938;2023-01-28T14:43:12;1.10;99.90
698;DHT22;331;48.414;9.938;2023-01-28T14:48:31;1.20;99.90
698;DHT22;331;48.414;9.938;2023-01-28T14:51:06;1.20;99.90
698;DHT22;331;48.414;9.938;2023-01-28T14:56:27;1.10;99.90
698;DHT22;331;48.414;9.938;2023-01-28T14:58:58;1.20;99.90
698;DHT22;331;48.414;9.938;2023-01-28T15:01:31;1.20;99.90
698;DHT22;331;48.414;9.938;2023-01-28T15:04:02;1.20;99.90
698;DHT22;331;48.414;9.938;2023-01-28T15:06:29;1.20;99.90
698;DHT22;331;48.414;9.938;2023-01-28T15:09:04;1.20;99.90
698;DHT22;331;48.414;9.938;2023-01-28T15:11:31;1.20;99.90
698;DHT22;331;48.414;9.938;2023-01-28T15:13:58;1.20;99.90
698;DHT22;331;48.414;9.938;2023-01-28T15:16:26;1.20;99.90
698;DHT22;331;48.414;9.938;2023-01-28T15:18:54;1.20;99.90
698;DHT22;331;48.414;9.938;2023-01-28T15:21:24;1.20;99.90
698;DHT22;331;48.414;9.938;2023-01-28T15:23:51;1.20;99.90
698;DHT22;331;48.414;9.938;2023-01-28T15:26:19;1.20;99.90
698;DHT22;331;48.414;9.938;2023-01-28T15:28:50;1.20;99.90
698;DHT22;331;48.414;9.938;2023-01-28T15:31:28;1.20;99.90
698;DHT22;331;48.414;9.938;2023-01-28T15:33:56;1.20;99.90
698;DHT22;331;48.414;9.938;2023-01-28T15:36:25;1.20;99.90
698;DHT22;331;48.414;9.938;2023-01-28T15:38:52;1.20;99.90
698;DHT22;331;48.414;9.938;2023-01-28T15:41:19;1.20;99.90
698;DHT22;331;48.414;9.938;2023-01-28T15:43:47;1.20;99.90
698;DHT22;331;48.414;9.938;2023-01-28T15:46:14;1.20;99.90
698;DHT22;331;48.414;9.938;2023-01-28T15:48:43;1.20;99.90
698;DHT22;331;48.414;9.938;2023-01-28T15:51:15;1.20;99.90
698;DHT22;331;48.414;9.938;2023-01-28T15:53:46;1.20;99.90
698;DHT22;331;48.414;9.938;2023-01-28T15:56:15;1.20;99.90
698;DHT22;331;48.414;9.938;2023-01-28T15:58:49;1.20;99.90
698;DHT22;331;48.414;9.938;2023-01-28T16:01:17;1.20;99.90
698;DHT22;331;48.414;9.938;2023-01-28T16:03:45;1.20;99.90
698;DHT22;331;48.414;9.938;2023-01-28T16:06:13;1.20;99.90
698;DHT22;331;48.414;9.938;2023-01-28T16:08:46;1.20;99.90
698;DHT22;331;48.414;9.938;2023-01-28T16:11:20;1.20;99.90
698;DHT22;331;48.414;9.938;2023-01-28T16:13:47;1.20;99.90
698;DHT22;331;48.414;9.938;2023-01-28T16:16:14;1.20;99.90
698;DHT22;331;48.414;9.938;2023-01-28T16:18:42;1.20;99.90
698;DHT22;331;48.414;9.938;2023-01-28T16:21:11;1.20;99.90
698;DHT22;331;48.414;9.938;2023-01-28T16:23:50;1.20;99.90
698;DHT22;331;48.414;9.938;2023-01-28T16:26:19;1.20;99.90
698;DHT22;331;48.414;9.938;2023-01-28T16:28:46;1.20;99.90
698;DHT22;331;48.414;9.938;2023-01-28T16:31:13;1.20;99.90
698;DHT22;331;48.414;9.938;2023-01-28T16:33:40;1.20;99.90
698;DHT22;331;48.414;9.938;2023-01-28T16:36:08;1.20;99.90
698;DHT22;331;48.414;9.938;2023-01-28T16:38:35;1.20;99.90
698;DHT22;331;48.414;9.938;2023-01-28T16:41:11;1.20;99.90
698;DHT22;331;48.414;9.938;2023-01-28T16:43:42;1.20;99.90
698;DHT22;331;48.414;9.938;2023-01-28T16:46:10;1.20;99.90
698;DHT22;331;48.414;9.938;2023-01-28T16:48:36;1.20;99.90
698;DHT22;331;48.414;9.938;2023-01-28T16:51:09;1.20;99.90
698;DHT22;331;48.414;9.938;2023-01-28T16:53:40;1.20;99.90
698;DHT22;331;48.414;9.938;2023-01-28T16:56:08;1.20;99.90
698;DHT22;331;48.414;9.938;2023-01-28T16:58:37;1.20;99.90
698;DHT22;331;48.414;9.938;2023-01-28T17:01:04;1.20;99.90
698;DHT22;331;48.414;9.938;2023-01-28T17:03:31;1.20;99.90
698;DHT22;331;48.414;9.938;2023-01-28T17:05:58;1.20;99.90
698;DHT22;331;48.414;9.938;2023-01-28T17:08:24;1.20;99.90
698;DHT22;331;48.414;9.938;2023-01-28T17:10:51;1.20;99.90
698;DHT22;331;48.414;9.938;2023-01-28T17:13:18;1.20;99.90
698;DHT22;331;48.414;9.938;2023-01-28T17:15:46;1.20;99.90
698;DHT22;331;48.414;9.938;2023-01-28T17:18:13;1.20;99.90
698;DHT22;331;48.414;9.938;2023-01-28T17:20:40;1.20;99.90
698;DHT22;331;48.414;9.938;2023-01-28T17:23:07;1.20;99.90
698;DHT22;331;48.414;9.938;2023-01-28T17:25:35;1.20;99.90
698;DHT22;331;48.414;9.938;2023-01-28T17:28:02;1.20;99.90
698;DHT22;331;48.414;9.938;2023-01-28T17:30:29;1.20;99.90
698;DHT22;331;48.414;9.938;2023-01-28T17:32:57;1.20;99.90